Time;durP1;ratioP1;P1;durP2;ratioP2;P2;SDS_P1;SDS_P2;PMS_P1;PMS_P2;Temp;Humidity;BMP_temperature;BMP_pressure;BME280_temperature;BME280_humidity;BME280_pressure;Samples;Min_cycle;Max_cycle;Signal;HPM_P1;HPM_P2
2020/12/02 00:01:03;;;;;;;32.13;20.73;;;4.10;99.90;;;;;;5070074;28;20283;-69
2020/12/02 00:03:34;;;;;;;31.50;18.80;;;4.10;99.90;;;;;;5069945;28;20214;-69
2020/12/02 00:06:02;;;;;;;29.27;20.53;;;4.10;99.90;;;;;;5070249;28;20198;-70
2020/12/02 00:08:32;;;;;;;32.57;19.73;;;4.10;99.90;;;;;;5069431;28;20252;-70
2020/12/02 00:11:00;;;;;;;31.50;19.90;;;4.10;99.90;;;;;;5070022;28;20203;-70
2020/12/02 00:13:30;;;;;;;28.27;19.40;;;4.00;99.90;;;;;;5070337;28;20263;-69
2020/12/02 00:15:57;;;;;;;28.63;20.53;;;4.00;99.90;;;;;;5073458;28;20218;-71
2020/12/02 00:18:24;;;;;;;26.57;19.23;;;3.90;99.90;;;;;;5072920;28;20203;-68
2020/12/02 00:20:50;;;;;;;31.97;19.23;;;4.00;99.90;;;;;;5073791;28;20233;-70
2020/12/02 00:23:17;;;;;;;29.20;18.57;;;4.00;99.90;;;;;;5072811;28;20206;-70
2020/12/02 00:25:44;;;;;;;29.07;20.47;;;4.00;99.90;;;;;;5073929;28;20202;-68
2020/12/02 00:28:12;;;;;;;33.33;21.47;;;4.00;99.90;;;;;;5073229;28;20206;-71
2020/12/02 00:30:41;;;;;;;29.73;19.77;;;3.90;99.90;;;;;;5073422;28;20681;-69
2020/12/02 00:33:11;;;;;;;31.17;19.40;;;4.00;99.90;;;;;;5073398;28;20206;-69
2020/12/02 00:35:39;;;;;;;27.67;20.47;;;4.00;99.90;;;;;;5060178;28;20578;-69
2020/12/02 00:38:08;;;;;;;29.70;20.20;;;3.90;99.90;;;;;;5073418;28;20214;-68
2020/12/02 00:40:34;;;;;;;27.87;18.77;;;3.90;99.90;;;;;;5073578;28;20230;-70
2020/12/02 00:43:01;;;;;;;26.70;18.73;;;3.90;99.90;;;;;;5073529;28;20555;-69
2020/12/02 00:45:29;;;;;;;25.43;17.87;;;3.80;99.90;;;;;;5072628;28;20255;-68
2020/12/02 00:47:55;;;;;;;27.47;17.43;;;3.80;99.90;;;;;;5073199;28;20263;-68
2020/12/02 00:50:23;;;;;;;29.93;18.47;;;3.90;99.90;;;;;;5072506;28;20640;-69
2020/12/02 00:53:03;;;;;;;26.57;18.33;;;3.80;99.90;;;;;;5072891;28;20219;-71
2020/12/02 00:55:29;;;;;;;27.83;18.20;;;3.80;99.90;;;;;;5072713;28;20252;-67
2020/12/02 00:57:56;;;;;;;34.60;18.93;;;3.80;99.90;;;;;;5073026;28;20207;-67
2020/12/02 01:00:28;;;;;;;27.43;19.50;;;3.80;99.90;;;;;;5072339;28;20260;-70
2020/12/02 01:03:00;;;;;;;29.17;19.53;;;3.80;99.90;;;;;;5072938;28;20206;-71
2020/12/02 01:05:26;;;;;;;29.73;19.17;;;3.80;99.90;;;;;;5072754;28;20214;-68
2020/12/02 01:07:54;;;;;;;28.00;18.67;;;3.70;99.90;;;;;;5072728;28;20251;-68
2020/12/02 01:10:21;;;;;;;27.53;19.90;;;3.70;99.90;;;;;;5072463;28;20212;-67
2020/12/02 01:12:49;;;;;;;28.50;19.03;;;3.70;99.90;;;;;;5072419;28;20256;-69
2020/12/02 01:15:21;;;;;;;30.73;20.70;;;3.70;99.90;;;;;;5072067;28;20210;-68
2020/12/02 01:18:23;;;;;;;27.70;18.73;;;3.60;99.90;;;;;;5072873;28;20634;-70
2020/12/02 01:21:14;;;;;;;29.07;19.47;;;3.70;99.90;;;;;;5067053;28;20289;-69
2020/12/02 01:23:42;;;;;;;31.27;18.80;;;3.70;99.90;;;;;;5072930;28;20263;-70
2020/12/02 01:26:10;;;;;;;28.13;17.47;;;3.70;99.90;;;;;;5071812;28;20210;-70
2020/12/02 01:28:38;;;;;;;25.70;17.40;;;3.70;99.90;;;;;;5072438;28;20260;-67
2020/12/02 01:31:06;;;;;;;30.20;18.30;;;3.60;99.90;;;;;;5072694;28;20738;-70
2020/12/02 01:33:32;;;;;;;30.27;18.33;;;3.60;99.90;;;;;;5072042;28;20202;-69
2020/12/02 01:35:59;;;;;;;28.80;18.73;;;3.60;99.90;;;;;;5072164;28;20207;-69
2020/12/02 01:38:30;;;;;;;31.43;19.17;;;3.60;99.90;;;;;;5071627;28;20750;-69
2020/12/02 01:40:58;;;;;;;29.47;18.77;;;3.70;99.90;;;;;;5072279;28;20234;-70
2020/12/02 01:43:25;;;;;;;30.30;17.90;;;3.70;99.90;;;;;;5071875;28;20263;-69
2020/12/02 01:45:56;;;;;;;26.37;18.83;;;3.70;99.90;;;;;;5072380;28;20236;-68
2020/12/02 01:49:04;;;;;;;29.20;17.40;;;3.60;99.90;;;;;;5071884;28;20259;-69
2020/12/02 01:51:47;;;;;;;25.67;17.10;;;3.60;99.90;;;;;;5072206;28;20210;-69
2020/12/02 01:54:18;;;;;;;31.73;19.13;;;3.70;99.90;;;;;;5071565;28;20198;-68
2020/12/02 01:56:50;;;;;;;26.20;18.27;;;3.70;99.90;;;;;;5072091;28;20244;-68
2020/12/02 01:59:27;;;;;;;25.20;18.37;;;3.70;99.90;;;;;;5071445;28;20213;-68
2020/12/02 02:02:10;;;;;;;26.93;17.97;;;3.60;99.90;;;;;;5071990;28;20264;-67
2020/12/02 02:04:44;;;;;;;25.63;16.57;;;3.60;99.90;;;;;;5071759;28;20206;-68
2020/12/02 02:07:16;;;;;;;29.00;17.43;;;3.70;99.90;;;;;;5071313;28;20263;-68
2020/12/02 02:09:45;;;;;;;25.83;16.60;;;3.70;99.90;;;;;;5071516;28;20220;-69
2020/12/02 02:12:41;;;;;;;23.90;16.50;;;3.70;99.90;;;;;;5071395;28;20622;-69
2020/12/02 02:15:33;;;;;;;25.93;16.80;;;3.80;99.90;;;;;;5060883;28;20211;-67
2020/12/02 02:18:02;;;;;;;27.70;16.10;;;3.80;99.90;;;;;;5071461;28;20251;-68
2020/12/02 02:20:32;;;;;;;26.93;19.33;;;3.90;99.90;;;;;;5071051;28;20284;-68
2020/12/02 02:22:58;;;;;;;23.43;17.33;;;3.90;99.90;;;;;;5062459;28;20226;-68
2020/12/02 02:25:25;;;;;;;25.00;14.80;;;4.00;99.90;;;;;;5070756;28;20232;-67
2020/12/02 02:27:54;;;;;;;23.97;15.27;;;4.00;99.90;;;;;;5070996;28;20233;-67
2020/12/02 02:30:21;;;;;;;26.97;16.33;;;4.00;99.90;;;;;;5071023;28;20251;-68
2020/12/02 02:32:48;;;;;;;21.13;14.90;;;3.90;99.90;;;;;;5071093;28;20569;-68
2020/12/02 02:35:16;;;;;;;26.37;16.13;;;3.90;99.90;;;;;;5070823;28;20202;-68
2020/12/02 02:37:42;;;;;;;22.00;15.23;;;4.00;99.90;;;;;;5070328;28;20214;-68
2020/12/02 02:40:13;;;;;;;21.10;14.77;;;4.00;99.90;;;;;;5070620;28;20229;-68
2020/12/02 02:42:43;;;;;;;23.13;14.53;;;4.10;99.90;;;;;;5070935;28;20247;-68
2020/12/02 02:45:14;;;;;;;22.17;13.63;;;4.10;99.90;;;;;;5070647;28;20245;-68
2020/12/02 02:47:40;;;;;;;23.60;15.23;;;4.10;99.90;;;;;;5056689;28;20739;-68
2020/12/02 02:50:11;;;;;;;19.90;13.37;;;4.20;99.90;;;;;;5070879;28;20331;-67
2020/12/02 02:52:38;;;;;;;17.90;12.50;;;4.20;99.90;;;;;;5070746;28;20245;-67
2020/12/02 02:55:11;;;;;;;22.53;14.57;;;4.20;99.90;;;;;;5071431;28;20214;-70
2020/12/02 02:57:37;;;;;;;21.80;13.07;;;4.10;99.90;;;;;;5070249;28;20626;-68
2020/12/02 03:00:07;;;;;;;16.47;12.13;;;4.10;99.90;;;;;;5070936;28;20721;-70
2020/12/02 03:02:35;;;;;;;22.33;14.27;;;4.10;99.90;;;;;;5070884;28;20256;-68
2020/12/02 03:05:02;;;;;;;20.43;14.83;;;4.00;99.90;;;;;;5071179;28;20206;-67
2020/12/02 03:07:28;;;;;;;21.57;13.53;;;4.00;99.90;;;;;;5070413;28;20561;-67
2020/12/02 03:09:54;;;;;;;25.37;14.87;;;4.00;99.90;;;;;;5070676;28;20206;-67
2020/12/02 03:12:22;;;;;;;19.77;13.10;;;4.00;99.90;;;;;;5070364;28;20202;-69
2020/12/02 03:14:48;;;;;;;21.10;12.80;;;3.90;99.90;;;;;;5070357;28;20631;-70
2020/12/02 03:17:18;;;;;;;19.33;12.43;;;3.90;99.90;;;;;;5070311;28;20216;-70
2020/12/02 03:19:50;;;;;;;18.63;12.10;;;3.90;99.90;;;;;;5070724;28;20280;-70
2020/12/02 03:22:20;;;;;;;15.53;11.77;;;4.10;99.90;;;;;;5070300;28;20229;-68
2020/12/02 03:24:47;;;;;;;22.27;13.93;;;4.10;99.90;;;;;;5070756;28;20232;-68
2020/12/02 03:27:14;;;;;;;17.50;11.83;;;4.20;99.90;;;;;;5070349;28;20279;-69
2020/12/02 03:29:41;;;;;;;18.03;11.97;;;4.20;99.90;;;;;;5070387;28;20206;-68
2020/12/02 03:32:07;;;;;;;17.03;11.33;;;4.30;99.90;;;;;;5070220;28;20202;-70
2020/12/02 03:34:34;;;;;;;14.30;11.90;;;4.30;99.90;;;;;;5070505;28;20206;-70
2020/12/02 03:37:01;;;;;;;17.63;10.57;;;4.30;99.90;;;;;;5070306;28;20202;-70
2020/12/02 03:39:27;;;;;;;16.47;11.63;;;4.30;99.90;;;;;;5070082;28;20210;-71
2020/12/02 03:41:54;;;;;;;16.37;10.33;;;4.30;99.90;;;;;;5070364;28;20206;-71
2020/12/02 03:44:20;;;;;;;16.87;10.90;;;4.40;99.90;;;;;;5070035;28;20198;-67
2020/12/02 03:46:47;;;;;;;16.33;11.30;;;4.40;99.90;;;;;;5069899;28;20202;-68
2020/12/02 03:49:13;;;;;;;15.40;10.97;;;4.40;99.90;;;;;;5072155;28;20210;-68
2020/12/02 03:51:40;;;;;;;18.63;9.73;;;4.40;99.90;;;;;;5074582;28;20268;-70
2020/12/02 03:54:08;;;;;;;16.37;10.07;;;4.40;99.90;;;;;;5074112;28;20581;-68
2020/12/02 03:56:34;;;;;;;17.73;10.20;;;4.50;99.90;;;;;;5074471;28;20670;-69
2020/12/02 03:59:01;;;;;;;16.17;10.20;;;4.50;99.90;;;;;;5074596;28;20198;-71
2020/12/02 04:01:27;;;;;;;13.73;9.73;;;4.50;99.90;;;;;;5073279;28;20716;-69
2020/12/02 04:03:54;;;;;;;16.67;10.50;;;4.50;99.90;;;;;;5073824;28;20689;-69
2020/12/02 04:06:21;;;;;;;12.00;9.30;;;4.50;99.90;;;;;;5073946;28;20202;-70
2020/12/02 04:08:47;;;;;;;11.83;9.33;;;4.50;99.90;;;;;;5073947;28;20206;-69
2020/12/02 04:11:15;;;;;;;20.43;10.43;;;4.60;99.90;;;;;;5073802;28;20622;-70
2020/12/02 04:13:42;;;;;;;13.57;9.67;;;4.60;99.90;;;;;;5074112;28;20240;-69
2020/12/02 04:16:09;;;;;;;18.53;11.17;;;4.60;99.90;;;;;;5072810;28;20210;-70
2020/12/02 04:18:35;;;;;;;17.40;10.00;;;4.50;99.90;;;;;;5074369;28;20214;-69
2020/12/02 04:21:02;;;;;;;14.27;10.20;;;4.50;99.90;;;;;;5073950;28;20299;-69
2020/12/02 04:23:28;;;;;;;12.60;9.50;;;4.50;99.90;;;;;;5073593;28;20268;-69
2020/12/02 04:25:55;;;;;;;13.03;9.03;;;4.50;99.90;;;;;;5073665;28;20202;-69
2020/12/02 04:28:22;;;;;;;13.73;8.87;;;4.60;99.90;;;;;;5073096;28;20256;-71
2020/12/02 04:30:49;;;;;;;13.87;8.63;;;4.60;99.90;;;;;;5073078;28;20622;-71
2020/12/02 04:33:17;;;;;;;14.83;8.67;;;4.50;99.90;;;;;;5072915;28;20747;-69
2020/12/02 04:35:43;;;;;;;14.57;8.93;;;4.60;99.90;;;;;;5073649;28;20255;-67
2020/12/02 04:38:10;;;;;;;11.83;9.67;;;4.60;99.90;;;;;;5072981;28;20206;-67
2020/12/02 04:40:40;;;;;;;13.07;8.30;;;4.60;99.90;;;;;;5073326;28;20280;-67
2020/12/02 04:43:16;;;;;;;14.13;8.50;;;4.60;99.90;;;;;;5073079;28;20206;-68
2020/12/02 04:45:44;;;;;;;16.30;8.20;;;4.50;99.90;;;;;;5073473;28;20209;-69
2020/12/02 04:48:14;;;;;;;15.80;8.17;;;4.60;99.90;;;;;;5073180;28;20260;-67
2020/12/02 04:50:41;;;;;;;14.53;7.83;;;4.60;99.90;;;;;;5073033;28;20202;-67
2020/12/02 04:53:15;;;;;;;15.23;8.27;;;4.60;99.90;;;;;;5072721;28;20677;-67
2020/12/02 04:55:43;;;;;;;15.67;9.10;;;4.60;99.90;;;;;;5073063;28;20198;-67
2020/12/02 04:58:29;;;;;;;10.90;8.00;;;4.60;99.90;;;;;;5072746;28;20210;-69
2020/12/02 05:01:15;;;;;;;16.10;8.17;;;4.60;99.90;;;;;;5071622;28;20252;-68
2020/12/02 05:03:54;;;;;;;10.60;7.93;;;4.60;99.90;;;;;;5072660;28;20673;-68
2020/12/02 05:06:27;;;;;;;11.07;7.50;;;4.60;99.90;;;;;;5072504;28;20624;-68
2020/12/02 05:09:06;;;;;;;17.17;7.53;;;4.60;99.90;;;;;;5072867;28;20224;-67
2020/12/02 05:11:32;;;;;;;11.50;8.50;;;4.60;99.90;;;;;;5073072;28;20237;-68
2020/12/02 05:14:00;;;;;;;13.60;8.07;;;4.60;99.90;;;;;;5072597;28;20210;-68
2020/12/02 05:16:29;;;;;;;7.87;6.77;;;4.60;99.90;;;;;;5072082;28;21012;-68
2020/12/02 05:19:00;;;;;;;13.23;7.97;;;4.60;99.90;;;;;;5067635;28;20275;-68
2020/12/02 05:21:31;;;;;;;10.90;7.23;;;4.60;99.90;;;;;;5058385;28;20306;-67
2020/12/02 05:24:06;;;;;;;14.43;7.83;;;4.50;99.90;;;;;;5068936;28;20207;-67
2020/12/02 05:26:35;;;;;;;12.17;7.80;;;4.60;99.90;;;;;;5061144;28;20214;-67
2020/12/02 05:29:08;;;;;;;10.60;6.53;;;4.60;99.90;;;;;;5072400;28;20206;-68
2020/12/02 05:31:36;;;;;;;12.47;7.10;;;4.60;99.90;;;;;;5071105;28;20679;-68
2020/12/02 05:34:09;;;;;;;9.93;7.17;;;4.50;99.90;;;;;;5071960;28;20252;-68
2020/12/02 05:36:41;;;;;;;13.70;8.03;;;4.50;99.90;;;;;;5071615;28;20736;-68
2020/12/02 05:39:16;;;;;;;19.20;8.13;;;4.50;99.90;;;;;;5071762;28;20666;-68
2020/12/02 05:41:44;;;;;;;13.63;8.37;;;4.60;99.90;;;;;;5071953;28;20233;-68
2020/12/02 05:44:15;;;;;;;14.00;8.43;;;4.50;99.90;;;;;;5072157;28;20229;-67
2020/12/02 05:46:46;;;;;;;12.40;8.57;;;4.60;99.90;;;;;;5072080;28;20202;-68
2020/12/02 05:49:16;;;;;;;11.53;8.53;;;4.60;99.90;;;;;;5071631;28;20727;-68
2020/12/02 05:51:43;;;;;;;16.20;8.60;;;4.50;99.90;;;;;;5071998;28;20583;-68
2020/12/02 05:54:13;;;;;;;14.50;9.33;;;4.60;99.90;;;;;;5071758;28;20229;-68
2020/12/02 05:56:39;;;;;;;9.80;7.30;;;4.60;99.90;;;;;;5066932;28;20203;-67
2020/12/02 05:59:06;;;;;;;10.83;6.97;;;4.60;99.90;;;;;;5062376;28;20210;-68
2020/12/02 06:01:34;;;;;;;11.37;7.33;;;4.60;99.90;;;;;;5071446;28;20721;-67
2020/12/02 06:04:02;;;;;;;15.17;7.83;;;4.70;99.90;;;;;;5069007;28;20206;-68
2020/12/02 06:06:31;;;;;;;11.17;8.03;;;4.70;99.90;;;;;;5070716;28;20214;-68
2020/12/02 06:08:58;;;;;;;9.97;7.00;;;4.60;99.90;;;;;;5071217;28;20237;-67
2020/12/02 06:11:31;;;;;;;10.70;7.57;;;4.60;99.90;;;;;;5068963;28;20206;-67
2020/12/02 06:14:01;;;;;;;10.37;7.57;;;4.60;99.90;;;;;;5071505;28;20284;-68
2020/12/02 06:16:36;;;;;;;9.10;7.30;;;4.70;99.90;;;;;;5071042;28;20271;-69
2020/12/02 06:19:19;;;;;;;15.10;7.57;;;4.70;99.90;;;;;;5071371;28;20625;-69
2020/12/02 06:21:47;;;;;;;9.67;6.27;;;4.60;99.90;;;;;;5071484;28;20280;-68
2020/12/02 06:24:23;;;;;;;11.17;6.83;;;4.60;99.90;;;;;;5071043;28;20267;-67
2020/12/02 06:26:49;;;;;;;14.90;8.17;;;4.60;99.90;;;;;;5071122;28;20206;-67
2020/12/02 06:29:33;;;;;;;13.07;7.30;;;4.60;99.90;;;;;;5070381;28;20599;-68
2020/12/02 06:32:10;;;;;;;11.30;8.27;;;4.60;99.90;;;;;;5070943;28;20285;-67
2020/12/02 06:34:38;;;;;;;13.63;6.80;;;4.60;99.90;;;;;;5070687;28;20198;-68
2020/12/02 06:37:12;;;;;;;13.40;7.40;;;4.70;99.90;;;;;;5071353;28;20199;-67
2020/12/02 06:39:41;;;;;;;16.33;8.33;;;4.60;99.90;;;;;;5070737;28;20202;-67
2020/12/02 06:42:27;;;;;;;10.07;7.33;;;4.60;99.90;;;;;;5070522;28;20259;-68
2020/12/02 06:45:08;;;;;;;10.53;6.63;;;4.60;99.90;;;;;;5070926;28;20224;-69
2020/12/02 06:47:36;;;;;;;11.00;7.53;;;4.60;99.90;;;;;;5058860;28;20225;-69
2020/12/02 06:50:11;;;;;;;9.57;7.83;;;4.60;99.90;;;;;;5071095;28;20206;-68
2020/12/02 06:52:38;;;;;;;13.00;8.03;;;4.60;99.90;;;;;;5058181;28;20205;-69
2020/12/02 06:55:23;;;;;;;13.27;9.07;;;4.60;99.90;;;;;;5071166;28;20299;-69
2020/12/02 06:57:56;;;;;;;13.50;7.63;;;4.60;99.90;;;;;;5058669;28;20734;-69
2020/12/02 07:00:26;;;;;;;9.90;7.03;;;4.60;99.90;;;;;;5070116;28;20225;-68
2020/12/02 07:02:58;;;;;;;11.57;8.17;;;4.60;99.90;;;;;;5070774;28;20232;-68
2020/12/02 07:05:31;;;;;;;13.23;7.40;;;4.60;99.90;;;;;;5070052;28;20199;-68
2020/12/02 07:08:13;;;;;;;12.13;7.50;;;4.60;99.90;;;;;;5070785;28;20268;-68
2020/12/02 07:10:41;;;;;;;13.67;8.43;;;4.60;99.90;;;;;;5070549;28;20237;-68
2020/12/02 07:13:14;;;;;;;12.73;7.40;;;4.80;99.90;;;;;;5070304;28;20618;-68
2020/12/02 07:15:45;;;;;;;11.93;5.97;;;4.70;99.90;;;;;;5070505;28;20221;-68
2020/12/02 07:18:17;;;;;;;16.90;8.43;;;4.70;99.90;;;;;;5070344;28;20202;-71
2020/12/02 07:20:47;;;;;;;9.97;7.07;;;4.80;99.90;;;;;;5070169;28;20222;-70
2020/12/02 07:23:16;;;;;;;17.67;8.30;;;4.80;99.90;;;;;;5069435;28;20214;-70
2020/12/02 07:25:43;;;;;;;14.23;6.93;;;4.70;99.90;;;;;;5070399;28;20287;-70
2020/12/02 07:28:15;;;;;;;13.17;7.13;;;4.70;99.90;;;;;;5070147;28;20202;-71
2020/12/02 07:30:42;;;;;;;10.10;7.27;;;4.70;99.90;;;;;;5070582;28;20206;-69
2020/12/02 07:33:15;;;;;;;9.60;7.00;;;4.70;99.90;;;;;;5070058;28;20202;-70
2020/12/02 07:35:42;;;;;;;8.93;7.13;;;4.80;99.90;;;;;;5070477;28;20206;-69
2020/12/02 07:38:12;;;;;;;15.70;7.80;;;4.80;99.90;;;;;;5069540;28;20206;-70
2020/12/02 07:40:39;;;;;;;12.87;6.60;;;4.80;99.90;;;;;;5070442;28;20287;-69
2020/12/02 07:43:11;;;;;;;11.43;6.40;;;4.80;99.90;;;;;;5064724;28;20248;-72
2020/12/02 07:45:38;;;;;;;10.13;7.43;;;4.70;99.90;;;;;;5061939;28;20199;-71
2020/12/02 07:48:10;;;;;;;17.50;7.47;;;4.70;99.90;;;;;;5063280;28;20219;-72
2020/12/02 07:50:43;;;;;;;12.43;8.07;;;4.80;99.90;;;;;;5058057;28;20217;-71
2020/12/02 07:53:15;;;;;;;17.33;7.10;;;4.70;99.90;;;;;;5060021;28;20293;-71
2020/12/02 07:55:46;;;;;;;12.17;7.57;;;4.70;99.90;;;;;;5067259;28;20205;-70
2020/12/02 07:58:14;;;;;;;9.30;6.73;;;4.70;99.90;;;;;;5060195;28;20199;-71
2020/12/02 08:00:43;;;;;;;13.30;7.30;;;4.80;99.90;;;;;;5069894;28;20311;-70
2020/12/02 08:03:29;;;;;;;12.17;6.90;;;4.80;99.90;;;;;;5069318;28;20206;-70
2020/12/02 08:06:04;;;;;;;13.83;7.97;;;4.80;99.90;;;;;;5061308;28;20677;-71
2020/12/02 08:08:30;;;;;;;17.43;7.43;;;4.90;99.90;;;;;;5067134;28;20228;-70
2020/12/02 08:11:07;;;;;;;10.83;7.37;;;4.90;99.90;;;;;;5063749;28;20210;-71
2020/12/02 08:13:36;;;;;;;13.03;7.60;;;4.90;99.90;;;;;;5065772;28;20206;-70
2020/12/02 08:16:03;;;;;;;11.07;6.67;;;5.00;99.90;;;;;;5069779;28;20719;-71
2020/12/02 08:18:32;;;;;;;10.10;7.73;;;4.90;99.90;;;;;;5069240;28;20214;-70
2020/12/02 08:21:12;;;;;;;9.90;7.43;;;4.90;99.90;;;;;;5069292;28;20709;-70
2020/12/02 08:23:39;;;;;;;11.53;7.70;;;4.90;99.90;;;;;;5062567;28;20665;-70
2020/12/02 08:26:15;;;;;;;10.77;7.90;;;5.00;99.90;;;;;;5066280;28;20565;-69
2020/12/02 08:28:41;;;;;;;15.40;8.90;;;5.00;99.90;;;;;;5061382;28;20646;-69
2020/12/02 08:31:19;;;;;;;13.63;7.47;;;5.10;99.90;;;;;;5069471;28;20552;-69
2020/12/02 08:34:14;;;;;;;9.93;6.80;;;5.00;99.90;;;;;;5069653;28;20236;-70
2020/12/02 08:36:43;;;;;;;9.97;7.83;;;5.10;99.90;;;;;;5058373;28;20624;-70
2020/12/02 08:39:10;;;;;;;18.83;8.60;;;5.10;99.90;;;;;;5068995;28;20249;-70
2020/12/02 08:41:47;;;;;;;16.10;8.30;;;5.10;99.90;;;;;;5062484;28;20768;-69
2020/12/02 08:44:15;;;;;;;19.43;7.57;;;5.10;99.90;;;;;;5065994;28;20202;-70
2020/12/02 08:46:50;;;;;;;12.47;7.03;;;5.20;99.90;;;;;;5071669;28;20252;-69
2020/12/02 08:49:16;;;;;;;10.50;6.73;;;5.30;99.90;;;;;;5070898;28;20198;-69
2020/12/02 08:51:44;;;;;;;17.47;6.63;;;5.30;99.90;;;;;;5071733;28;20210;-70
2020/12/02 08:54:13;;;;;;;13.43;6.70;;;5.20;99.90;;;;;;5062062;28;20703;-69
2020/12/02 08:56:40;;;;;;;17.53;7.73;;;5.20;99.90;;;;;;5059929;28;20210;-70
2020/12/02 08:59:10;;;;;;;18.77;7.80;;;5.20;99.90;;;;;;5060608;28;20206;-69
2020/12/02 09:01:36;;;;;;;9.53;6.17;;;5.20;99.90;;;;;;5060891;28;20238;-69
2020/12/02 09:04:04;;;;;;;15.27;7.77;;;5.20;99.90;;;;;;5071787;28;20739;-79
2020/12/02 09:06:30;;;;;;;18.33;7.63;;;5.20;99.90;;;;;;5072640;28;20206;-68
2020/12/02 09:08:57;;;;;;;13.73;6.67;;;5.30;99.90;;;;;;5072760;28;20214;-69
2020/12/02 09:11:26;;;;;;;16.33;6.73;;;5.40;99.90;;;;;;5065553;28;20207;-71
2020/12/02 09:13:54;;;;;;;16.57;7.67;;;5.40;99.90;;;;;;5069332;28;20206;-70
2020/12/02 09:16:24;;;;;;;12.20;6.70;;;5.40;99.90;;;;;;5068310;28;20263;-71
2020/12/02 09:18:51;;;;;;;16.17;7.43;;;5.50;99.90;;;;;;5062631;28;20206;-72
2020/12/02 09:21:18;;;;;;;18.10;7.33;;;5.40;99.90;;;;;;5070766;28;20234;-72
2020/12/02 09:23:45;;;;;;;10.50;6.83;;;5.40;99.90;;;;;;5064910;28;20256;-70
2020/12/02 09:26:16;;;;;;;16.67;6.83;;;5.40;99.90;;;;;;5071979;28;20232;-71
2020/12/02 09:28:42;;;;;;;12.07;6.33;;;5.40;99.90;;;;;;5065274;28;20615;-75
2020/12/02 09:31:09;;;;;;;12.03;7.07;;;5.50;99.90;;;;;;5068204;28;20666;-73
2020/12/02 09:33:36;;;;;;;13.43;6.97;;;5.80;99.90;;;;;;5069006;28;20213;-69
2020/12/02 09:36:03;;;;;;;12.30;6.27;;;5.90;99.90;;;;;;5072547;28;20210;-74
2020/12/02 09:38:29;;;;;;;12.83;6.43;;;6.00;99.90;;;;;;5070722;28;20215;-75
2020/12/02 09:40:58;;;;;;;14.33;7.43;;;6.00;99.90;;;;;;5057824;28;20245;-72
2020/12/02 09:43:54;;;;;;;10.00;7.30;;;6.00;99.90;;;;;;5058668;28;20206;-70
2020/12/02 09:46:22;;;;;;;14.17;7.17;;;6.10;99.90;;;;;;5057279;28;20286;-74
2020/12/02 09:48:50;;;;;;;9.73;6.30;;;6.10;99.90;;;;;;5059659;28;20225;-69
2020/12/02 09:51:22;;;;;;;10.60;6.60;;;6.10;99.90;;;;;;5062119;28;20207;-74
2020/12/02 09:53:49;;;;;;;12.10;7.33;;;6.00;99.90;;;;;;5063728;28;20210;-70
2020/12/02 09:56:17;;;;;;;14.50;6.70;;;5.80;99.90;;;;;;5051513;28;20290;-73
2020/12/02 09:58:44;;;;;;;14.17;7.03;;;5.80;99.90;;;;;;5070640;28;20202;-71
2020/12/02 10:01:15;;;;;;;10.53;7.50;;;5.80;99.90;;;;;;5062341;28;20766;-71
2020/12/02 10:04:01;;;;;;;10.53;6.63;;;5.70;99.90;;;;;;5067016;28;20206;-70
2020/12/02 10:06:48;;;;;;;10.77;6.57;;;5.70;99.90;;;;;;5062995;28;20595;-73
2020/12/02 10:09:30;;;;;;;11.53;6.40;;;5.70;99.90;;;;;;5068502;28;20202;-72
2020/12/02 10:12:04;;;;;;;9.23;6.07;;;5.90;99.90;;;;;;5063592;28;20230;-74
2020/12/02 10:14:56;;;;;;;8.87;7.33;;;5.90;99.90;;;;;;5064983;28;20237;-71
2020/12/02 10:17:41;;;;;;;12.97;6.83;;;5.90;99.90;;;;;;5065715;28;20206;-72
2020/12/02 10:20:27;;;;;;;14.30;6.43;;;5.90;99.90;;;;;;5060568;28;20202;-73
2020/12/02 10:23:08;;;;;;;16.23;7.60;;;5.90;99.90;;;;;;5070692;28;20214;-72
2020/12/02 10:26:13;;;;;;;10.80;7.33;;;5.90;99.90;;;;;;5060664;28;20268;-69
2020/12/02 10:28:47;;;;;;;12.77;6.50;;;5.90;99.90;;;;;;5058456;28;20207;-72
2020/12/02 10:31:20;;;;;;;15.63;6.93;;;5.90;99.90;;;;;;5064967;28;20617;-73
2020/12/02 10:33:54;;;;;;;13.03;8.00;;;5.90;99.90;;;;;;5057276;28;20289;-73
2020/12/02 10:36:25;;;;;;;12.03;6.73;;;5.80;99.90;;;;;;5059037;28;20631;-73
2020/12/02 10:38:54;;;;;;;9.10;5.80;;;5.80;99.90;;;;;;5070424;28;20681;-73
2020/12/02 10:41:32;;;;;;;7.23;6.13;;;5.80;99.90;;;;;;5070567;28;20230;-71
2020/12/02 10:44:14;;;;;;;9.97;5.97;;;5.70;99.90;;;;;;5070961;28;20202;-71
2020/12/02 10:47:02;;;;;;;17.70;8.33;;;5.70;99.90;;;;;;5059339;28;20283;-71
2020/12/02 10:49:31;;;;;;;11.80;6.70;;;5.60;99.90;;;;;;5063575;28;20210;-71
2020/12/02 10:52:01;;;;;;;9.93;6.93;;;5.60;99.90;;;;;;5062238;28;20198;-72
2020/12/02 10:54:34;;;;;;;7.60;6.10;;;5.60;99.90;;;;;;5067319;28;21081;-71
2020/12/02 10:57:04;;;;;;;11.20;5.93;;;5.60;99.90;;;;;;5067345;28;20293;-73
2020/12/02 10:59:30;;;;;;;9.33;6.67;;;5.60;99.90;;;;;;5061964;28;20237;-73
2020/12/02 11:01:56;;;;;;;11.87;7.30;;;5.60;99.90;;;;;;5051256;28;20295;-70
2020/12/02 11:04:23;;;;;;;10.17;6.60;;;5.60;99.90;;;;;;5067896;28;20222;-71
2020/12/02 11:07:02;;;;;;;10.57;7.30;;;5.60;99.90;;;;;;5063519;28;21266;-73
2020/12/02 11:09:41;;;;;;;12.77;8.47;;;5.60;99.90;;;;;;5068545;28;20208;-72
2020/12/02 11:12:26;;;;;;;13.90;7.20;;;5.60;99.90;;;;;;5069166;28;20210;-67
2020/12/02 11:15:17;;;;;;;14.80;7.27;;;5.70;99.90;;;;;;5062619;28;20214;-73
2020/12/02 11:18:13;;;;;;;19.00;8.87;;;5.70;99.90;;;;;;5065943;28;20229;-71
2020/12/02 11:20:48;;;;;;;11.03;7.43;;;5.70;99.90;;;;;;5063675;28;20207;-73
2020/12/02 11:23:26;;;;;;;14.50;7.00;;;5.60;99.90;;;;;;5053207;28;20202;-73
2020/12/02 11:26:01;;;;;;;13.00;7.67;;;5.60;99.90;;;;;;5066501;28;20263;-70
2020/12/02 11:28:28;;;;;;;14.83;7.77;;;5.60;99.90;;;;;;5069262;28;20782;-71
2020/12/02 11:31:02;;;;;;;11.53;7.80;;;5.60;99.90;;;;;;5063636;28;20677;-67
2020/12/02 11:33:57;;;;;;;8.67;7.00;;;5.70;99.90;;;;;;5067517;28;20283;-68
2020/12/02 11:36:52;;;;;;;12.20;7.10;;;5.70;99.90;;;;;;5069577;28;20202;-67
2020/12/02 11:39:31;;;;;;;14.07;6.27;;;5.60;99.90;;;;;;5051709;28;20199;-72
2020/12/02 11:42:05;;;;;;;9.83;6.10;;;5.60;99.90;;;;;;5067227;28;20217;-72
2020/12/02 11:44:40;;;;;;;8.83;5.13;;;5.60;99.90;;;;;;5064643;28;20342;-72
2020/12/02 11:47:15;;;;;;;9.83;6.67;;;5.60;99.90;;;;;;5070324;28;20201;-71
2020/12/02 11:49:51;;;;;;;9.23;6.30;;;5.50;99.90;;;;;;5061266;28;20237;-71
2020/12/02 11:52:28;;;;;;;12.27;8.73;;;5.40;99.90;;;;;;5069097;28;20248;-70
2020/12/02 11:54:56;;;;;;;12.90;9.17;;;5.40;99.90;;;;;;5066529;28;20205;-73
2020/12/02 11:57:23;;;;;;;8.10;7.13;;;5.30;99.90;;;;;;5069656;28;20209;-72
2020/12/02 11:59:50;;;;;;;12.67;7.23;;;5.30;99.90;;;;;;5070049;28;20229;-72
2020/12/02 12:02:32;;;;;;;10.67;7.33;;;5.20;99.90;;;;;;5069674;28;20229;-71
2020/12/02 12:05:03;;;;;;;9.10;5.83;;;5.30;99.90;;;;;;5060871;28;20623;-72
2020/12/02 12:07:39;;;;;;;7.87;5.80;;;5.40;99.90;;;;;;5069618;28;20252;-72
2020/12/02 12:10:14;;;;;;;8.43;6.43;;;5.40;99.90;;;;;;5061898;28;20212;-72
2020/12/02 12:12:49;;;;;;;8.53;6.43;;;5.40;99.90;;;;;;5070820;28;20244;-71
2020/12/02 12:15:26;;;;;;;11.43;6.17;;;5.50;99.90;;;;;;5067601;28;20210;-74
2020/12/02 12:17:54;;;;;;;8.20;5.47;;;5.50;99.90;;;;;;5070869;28;20628;-72
2020/12/02 12:20:23;;;;;;;14.47;8.47;;;5.50;99.90;;;;;;5063326;28;20207;-67
2020/12/02 12:22:57;;;;;;;10.17;6.13;;;5.50;99.90;;;;;;5057393;28;20269;-68
2020/12/02 12:25:27;;;;;;;10.07;6.30;;;5.60;99.90;;;;;;5059522;28;20198;-70
2020/12/02 12:27:59;;;;;;;10.57;5.73;;;5.70;99.90;;;;;;5070428;28;20195;-70
2020/12/02 12:30:25;;;;;;;9.07;5.43;;;5.70;99.90;;;;;;5072930;28;20206;-71
2020/12/02 12:33:00;;;;;;;8.23;5.93;;;5.70;99.90;;;;;;5066605;28;20690;-70
2020/12/02 12:35:29;;;;;;;6.53;5.50;;;5.70;99.90;;;;;;5067024;28;20206;-70
2020/12/02 12:38:21;;;;;;;13.10;6.23;;;5.70;99.90;;;;;;5066545;28;20202;-67
2020/12/02 12:40:53;;;;;;;12.87;6.43;;;5.80;99.90;;;;;;5071365;28;20586;-68
2020/12/02 12:43:22;;;;;;;11.67;6.37;;;5.70;99.90;;;;;;5067950;28;20198;-68
2020/12/02 12:45:57;;;;;;;8.70;5.47;;;5.60;99.90;;;;;;5068118;28;20260;-69
2020/12/02 12:48:24;;;;;;;15.90;6.07;;;5.60;99.90;;;;;;5066856;28;20251;-70
2020/12/02 12:50:52;;;;;;;9.43;6.27;;;5.60;99.90;;;;;;5071218;28;20210;-69
2020/12/02 12:53:20;;;;;;;9.33;6.37;;;5.60;99.90;;;;;;5071773;28;20256;-68
2020/12/02 12:55:48;;;;;;;11.00;7.03;;;5.60;99.90;;;;;;5072921;28;20202;-70
2020/12/02 12:58:16;;;;;;;10.40;6.37;;;5.60;99.90;;;;;;5072329;28;20232;-72
2020/12/02 13:00:44;;;;;;;12.80;7.37;;;5.70;99.90;;;;;;5071120;28;20310;-71
2020/12/02 13:03:15;;;;;;;11.37;7.23;;;5.70;99.90;;;;;;5069106;28;20256;-70
2020/12/02 13:05:45;;;;;;;13.73;8.13;;;5.80;99.90;;;;;;5061914;28;20230;-70
2020/12/02 13:08:19;;;;;;;14.93;6.47;;;5.80;99.90;;;;;;5071749;28;20237;-68